Time;durP1;ratioP1;P1;durP2;ratioP2;P2;SDS_P1;SDS_P2;PMS_P1;PMS_P2;Temp;Humidity;BMP_temperature;BMP_pressure;BME280_temperature;BME280_humidity;BME280_pressure;Samples;Min_cycle;Max_cycle;Signal;HPM_P1;HPM_P2
2021/03/21 00:02:07;;;;;;;7.25;5.38;;;;;;;;;;6106014;29;20027;-84
2021/03/21 00:05:08;;;;;;;9.27;5.15;;;1.10;99.90;;;;;;6099655;29;20564;-85
2021/03/21 00:08:14;;;;;;;8.02;6.05;;;1.10;99.90;;;;;;6093736;29;20118;-83
2021/03/21 00:11:15;;;;;;;8.32;6.05;;;;;;;;;;6081370;29;20043;-84
2021/03/21 00:14:16;;;;;;;8.20;5.57;;;1.30;99.40;;;;;;6132621;29;20046;-83
2021/03/21 00:17:17;;;;;;;6.22;5.07;;;1.40;98.60;;;;;;6128654;29;20035;-83
2021/03/21 00:20:19;;;;;;;7.72;5.15;;;1.30;99.90;;;;;;6095179;29;20039;-83
2021/03/21 00:23:20;;;;;;;6.35;5.68;;;;;;;;;;6098093;29;20158;-83
2021/03/21 00:26:21;;;;;;;9.60;5.88;;;1.20;99.90;;;;;;6104229;29;20039;-84
2021/03/21 00:29:21;;;;;;;7.22;5.50;;;1.10;99.90;;;;;;6090212;29;20094;-83
2021/03/21 00:32:22;;;;;;;7.63;5.95;;;1.10;99.90;;;;;;6093362;29;20050;-83
2021/03/21 00:35:23;;;;;;;6.63;4.68;;;1.20;99.90;;;;;;6109658;29;20032;-84
2021/03/21 00:38:32;;;;;;;6.30;5.38;;;1.10;99.90;;;;;;6077608;29;20394;-83
2021/03/21 00:41:32;;;;;;;7.00;5.22;;;1.00;99.90;;;;;;6093256;29;20043;-84
2021/03/21 00:44:33;;;;;;;6.32;4.90;;;1.00;99.90;;;;;;6093009;29;20032;-82
2021/03/21 00:47:34;;;;;;;7.68;5.88;;;0.90;94.40;;;;;;6093337;29;20023;-82
2021/03/21 00:50:35;;;;;;;7.07;5.13;;;1.10;99.90;;;;;;6092371;29;20035;-83
2021/03/21 00:53:36;;;;;;;7.90;5.72;;;;;;;;;;6077608;29;20047;-83
2021/03/21 00:56:44;;;;;;;12.82;8.70;;;0.80;99.90;;;;;;6116772;29;20553;-82
2021/03/21 00:59:44;;;;;;;7.75;6.00;;;0.90;99.90;;;;;;6108188;29;20042;-84
2021/03/21 01:02:45;;;;;;;10.23;6.55;;;0.90;99.90;;;;;;6077172;29;20471;-82
2021/03/21 01:05:54;;;;;;;7.85;6.60;;;1.00;99.90;;;;;;6108624;29;20467;-85
2021/03/21 01:08:56;;;;;;;9.95;5.25;;;0.70;96.30;;;;;;6077540;29;20063;-83
2021/03/21 01:11:57;;;;;;;5.90;5.13;;;0.70;99.90;;;;;;6077046;29;20146;-83
2021/03/21 01:14:58;;;;;;;9.38;5.03;;;;;;;;;;6092833;29;20038;-83
2021/03/21 01:17:59;;;;;;;8.52;5.30;;;;;;;;;;6093205;29;20120;-83
2021/03/21 01:21:00;;;;;;;6.43;5.40;;;;;;;;;;6093404;29;20562;-83
2021/03/21 01:24:01;;;;;;;7.50;5.30;;;0.60;99.90;;;;;;6124269;29;20075;-83
2021/03/21 01:27:01;;;;;;;10.70;5.20;;;0.40;99.90;;;;;;6077768;29;20439;-83
2021/03/21 01:30:04;;;;;;;7.45;5.70;;;0.40;96.10;;;;;;6114704;29;20043;-84
2021/03/21 01:33:05;;;;;;;8.07;5.10;;;0.40;99.90;;;;;;6115223;29;20722;-82
2021/03/21 01:36:08;;;;;;;5.75;4.95;;;0.50;99.90;;;;;;6114619;29;20174;-84
2021/03/21 01:39:17;;;;;;;8.02;5.57;;;0.40;99.90;;;;;;6080961;29;20032;-83
2021/03/21 01:42:18;;;;;;;6.55;4.57;;;;;;;;;;6076388;29;20351;-83
2021/03/21 01:45:48;;;;;;;8.13;5.07;;;0.30;99.90;;;;;;6091633;29;20079;-83
2021/03/21 01:48:53;;;;;;;8.15;4.95;;;0.50;99.90;;;;;;6092392;29;20463;-83
2021/03/21 01:51:54;;;;;;;6.65;4.75;;;;;;;;;;6067942;29;20508;-84
2021/03/21 01:54:55;;;;;;;7.32;4.82;;;0.20;99.90;;;;;;6130391;29;20031;-84
2021/03/21 01:57:55;;;;;;;7.38;4.90;;;0.50;99.90;;;;;;6079090;29;20028;-84
2021/03/21 02:00:58;;;;;;;6.47;5.03;;;0.40;97.60;;;;;;6091419;29;20111;-83
2021/03/21 02:03:58;;;;;;;5.35;4.75;;;0.40;99.90;;;;;;6093026;29;20028;-84
2021/03/21 02:07:18;;;;;;;7.25;5.50;;;0.40;99.90;;;;;;6098853;29;20398;-83
2021/03/21 02:10:24;;;;;;;6.97;4.80;;;0.40;99.90;;;;;;6147360;29;20027;-84
2021/03/21 02:13:40;;;;;;;5.22;4.70;;;0.40;99.90;;;;;;6130011;29;20081;-83
2021/03/21 02:16:57;;;;;;;6.97;5.25;;;0.20;99.90;;;;;;6097806;29;20578;-84
2021/03/21 02:20:09;;;;;;;6.43;5.22;;;0.30;99.90;;;;;;6075767;29;20092;-82
2021/03/21 02:23:40;;;;;;;6.53;5.00;;;-0.10;99.90;;;;;;6109523;29;20055;-83
2021/03/21 02:27:12;;;;;;;7.60;5.00;;;0.10;95.60;;;;;;6129419;29;20039;-83
2021/03/21 02:30:35;;;;;;;6.95;4.82;;;0.10;96.10;;;;;;6129089;29;20616;-85
2021/03/21 02:33:51;;;;;;;6.47;5.10;;;-0.20;99.90;;;;;;6097910;29;20043;-83
2021/03/21 02:36:56;;;;;;;7.63;5.53;;;1.70;98.10;;;;;;6076082;29;20474;-83
2021/03/21 02:40:22;;;;;;;6.50;5.45;;;-0.40;99.90;;;;;;6096874;29;20414;-84
2021/03/21 02:43:32;;;;;;;8.77;5.43;;;-0.30;99.90;;;;;;6115128;29;20118;-83
2021/03/21 02:46:34;;;;;;;7.00;5.22;;;-0.40;99.90;;;;;;6114160;29;20489;-83
2021/03/21 02:49:45;;;;;;;;;;;-0.30;99.90;;;;;;6095965;29;20032;-84
2021/03/21 02:52:49;;;;;;;6.18;5.07;;;-0.20;97.90;;;;;;6129346;29;19923;-83
2021/03/21 02:55:50;;;;;;;6.93;5.15;;;0.00;99.90;;;;;;6115305;29;20038;-82
2021/03/21 02:58:56;;;;;;;7.38;5.53;;;-0.20;99.90;;;;;;6114082;29;20031;-83
2021/03/21 03:02:08;;;;;;;7.32;5.50;;;-0.20;96.30;;;;;;6129680;29;20473;-84
2021/03/21 03:05:16;;;;;;;6.85;5.03;;;-0.30;99.90;;;;;;6108302;29;20094;-83
2021/03/21 03:08:37;;;;;;;8.40;5.60;;;-0.30;99.90;;;;;;6114495;29;20031;-83
2021/03/21 03:11:55;;;;;;;7.05;4.95;;;0.30;96.50;;;;;;6106072;29;20046;-85
2021/03/21 03:14:57;;;;;;;9.50;6.10;;;;;;;;;;6075225;29;20027;-84
2021/03/21 03:18:36;;;;;;;6.00;5.30;;;-0.10;99.90;;;;;;6094641;29;20035;-83
2021/03/21 03:22:00;;;;;;;9.77;5.90;;;0.20;99.90;;;;;;6099800;29;20039;-84
2021/03/21 03:25:10;;;;;;;7.30;5.20;;;0.00;99.90;;;;;;6131287;29;20553;-84
2021/03/21 03:28:18;;;;;;;6.60;4.90;;;0.30;99.90;;;;;;6109122;29;20074;-83
2021/03/21 03:31:25;;;;;;;7.55;4.35;;;0.50;99.90;;;;;;6114005;29;20035;-83
2021/03/21 03:34:27;;;;;;;8.63;4.72;;;;;;;;;;6112862;29;20055;-83
2021/03/21 03:37:28;;;;;;;8.57;5.05;;;;;;;;;;6128313;29;20019;-84
2021/03/21 03:40:29;;;;;;;7.07;5.45;;;;;;;;;;6130011;29;20035;-84
2021/03/21 03:43:56;;;;;;;7.60;5.38;;;0.10;99.90;;;;;;6130869;29;20031;-83
2021/03/21 03:47:06;;;;;;;9.43;5.68;;;0.00;99.90;;;;;;6097063;29;20123;-83
2021/03/21 03:50:11;;;;;;;9.18;6.05;;;0.10;99.90;;;;;;6110399;29;20130;-82
2021/03/21 03:53:33;;;;;;;7.53;5.85;;;0.20;99.90;;;;;;6111958;29;20028;-83
2021/03/21 03:56:54;;;;;;;9.05;5.80;;;0.20;99.90;;;;;;6149709;29;20042;-84
2021/03/21 04:00:30;;;;;;;9.68;6.70;;;0.20;99.90;;;;;;6079580;29;20057;-84
2021/03/21 04:03:40;;;;;;;10.13;6.70;;;0.30;99.90;;;;;;6111024;29;20040;-84
2021/03/21 04:06:42;;;;;;;8.48;6.15;;;0.20;97.90;;;;;;6094514;29;20066;-83
2021/03/21 04:09:54;;;;;;;8.57;5.45;;;0.20;99.90;;;;;;6126437;29;20027;-83
2021/03/21 04:13:18;;;;;;;5.73;4.90;;;0.10;99.90;;;;;;6094087;29;20038;-85
2021/03/21 04:16:25;;;;;;;4.90;4.35;;;0.30;96.30;;;;;;6095497;29;20071;-84
2021/03/21 04:19:27;;;;;;;7.03;5.60;;;0.30;99.90;;;;;;6078254;29;20040;-85
2021/03/21 04:22:34;;;;;;;11.13;5.82;;;0.20;99.90;;;;;;6077978;29;20035;-84
2021/03/21 04:25:38;;;;;;;7.20;5.32;;;0.30;95.30;;;;;;6109470;29;20102;-84
2021/03/21 04:28:44;;;;;;;6.88;5.53;;;0.40;97.60;;;;;;6077836;29;20063;-84
2021/03/21 04:31:45;;;;;;;8.45;5.65;;;;;;;;;;6093671;29;20028;-83
2021/03/21 04:34:49;;;;;;;7.95;5.57;;;0.90;99.90;;;;;;6093763;29;20047;-82
2021/03/21 04:37:55;;;;;;;7.35;5.55;;;0.60;99.80;;;;;;6117577;29;20074;-83
2021/03/21 04:40:56;;;;;;;6.97;6.03;;;0.50;99.80;;;;;;6116284;29;20090;-83
2021/03/21 04:44:12;;;;;;;9.35;6.72;;;1.50;94.40;;;;;;6090563;29;20120;-83
2021/03/21 04:47:15;;;;;;;7.95;6.35;;;0.50;93.30;;;;;;6114826;29;20031;-83
2021/03/21 04:50:19;;;;;;;7.60;6.00;;;0.90;94.10;;;;;;6115729;28;20090;-83
2021/03/21 04:53:44;;;;;;;14.27;6.25;;;0.60;95.10;;;;;;6115313;29;20031;-82
2021/03/21 04:56:53;;;;;;;8.85;5.43;;;0.60;94.70;;;;;;6119341;29;20050;-83
2021/03/21 04:59:54;;;;;;;7.00;5.30;;;;;;;;;;6077879;29;20091;-84
2021/03/21 05:03:07;;;;;;;7.68;5.38;;;0.60;94.00;;;;;;6093318;29;20032;-83
2021/03/21 05:06:49;;;;;;;8.45;5.22;;;0.60;99.90;;;;;;6094777;29;20028;-83
2021/03/21 05:09:51;;;;;;;6.32;5.10;;;0.60;94.00;;;;;;6040352;29;20040;-83
2021/03/21 05:13:02;;;;;;;7.32;5.13;;;1.00;94.80;;;;;;6094160;29;20481;-82
2021/03/21 05:16:34;;;;;;;7.22;5.20;;;0.60;93.00;;;;;;6116312;29;20085;-83
2021/03/21 05:19:45;;;;;;;8.32;6.28;;;0.70;99.90;;;;;;6148049;29;20394;-83
2021/03/21 05:23:06;;;;;;;9.45;6.80;;;0.70;92.80;;;;;;6078068;29;20043;-83
2021/03/21 05:26:12;;;;;;;10.68;6.80;;;0.60;99.90;;;;;;6133783;29;20477;-84
2021/03/21 05:29:20;;;;;;;8.52;5.90;;;1.30;95.00;;;;;;6099092;29;20437;-83
2021/03/21 05:32:21;;;;;;;8.20;5.63;;;0.70;93.30;;;;;;6128459;29;20039;-84
2021/03/21 05:35:32;;;;;;;9.48;5.80;;;1.00;94.80;;;;;;6115798;29;20042;-83
2021/03/21 05:38:39;;;;;;;7.00;5.05;;;0.60;99.90;;;;;;6100286;29;20031;-81
2021/03/21 05:42:17;;;;;;;8.48;6.30;;;2.10;95.20;;;;;;6130781;29;20387;-88
2021/03/21 05:45:18;;;;;;;8.32;5.57;;;;;;;;;;6123720;29;20031;-85
2021/03/21 05:48:34;;;;;;;7.55;4.95;;;0.80;99.90;;;;;;6108234;29;20390;-86
2021/03/21 05:52:09;;;;;;;14.95;9.02;;;1.10;99.90;;;;;;6138137;29;20489;-85
2021/03/21 05:55:10;;;;;;;7.68;5.82;;;;;;;;;;6112182;29;20032;-84
2021/03/21 05:58:36;;;;;;;9.40;5.70;;;0.70;92.20;;;;;;6107589;29;20332;-85
2021/03/21 06:01:58;;;;;;;8.35;5.63;;;0.60;99.90;;;;;;6097300;29;20066;-85
2021/03/21 06:04:59;;;;;;;6.88;5.13;;;;;;;;;;6107038;29;20423;-86
2021/03/21 06:08:18;;;;;;;6.97;5.22;;;0.80;94.00;;;;;;6111255;29;20067;-86
2021/03/21 06:11:44;;;;;;;7.20;5.30;;;0.80;99.90;;;;;;6107408;29;20486;-84
2021/03/21 06:15:02;;;;;;;6.90;4.93;;;0.90;94.40;;;;;;6114646;29;20217;-84
2021/03/21 06:18:18;;;;;;;6.07;5.22;;;1.00;93.90;;;;;;6130102;29;20031;-84
2021/03/21 06:21:48;;;;;;;7.90;5.70;;;1.00;93.30;;;;;;6140347;29;20438;-84
2021/03/21 06:25:26;;;;;;;7.07;5.57;;;0.90;99.90;;;;;;6107076;29;20094;-84
2021/03/21 06:28:55;;;;;;;7.15;5.03;;;1.00;93.50;;;;;;6106553;29;20397;-84
2021/03/21 06:32:15;;;;;;;5.78;4.65;;;1.00;93.60;;;;;;6106671;29;20052;-85
2021/03/21 06:35:41;;;;;;;7.03;5.43;;;1.10;99.90;;;;;;6123789;29;20550;-85
2021/03/21 06:38:55;;;;;;;7.80;5.95;;;1.00;99.90;;;;;;6106690;29;20094;-83
2021/03/21 06:42:15;;;;;;;7.57;5.40;;;1.10;93.50;;;;;;6106989;29;20036;-84
2021/03/21 06:45:34;;;;;;;5.28;4.75;;;1.10;99.90;;;;;;6092400;29;20036;-84
2021/03/21 06:48:47;;;;;;;6.80;5.40;;;;;;;;;;6123832;29;20035;-83
2021/03/21 06:52:30;;;;;;;6.78;5.35;;;1.10;91.50;;;;;;6110973;29;20047;-84
2021/03/21 06:55:44;;;;;;;5.70;5.10;;;0.90;99.90;;;;;;6096335;29;20034;-85
2021/03/21 06:58:53;;;;;;;6.85;5.47;;;1.30;99.90;;;;;;6122414;29;20031;-84
2021/03/21 07:01:54;;;;;;;8.30;6.68;;;;;;;;;;6110084;29;20047;-87
2021/03/21 07:05:07;;;;;;;11.23;7.72;;;1.10;99.90;;;;;;6115704;29;20038;-84
2021/03/21 07:08:22;;;;;;;19.20;11.23;;;1.40;99.90;;;;;;6123556;29;20486;-84
2021/03/21 07:11:46;;;;;;;8.73;5.63;;;1.60;91.20;;;;;;6146087;29;20042;-84
2021/03/21 07:15:16;;;;;;;11.25;7.45;;;1.60;99.30;;;;;;6115562;29;20027;-83
2021/03/21 07:18:36;;;;;;;8.88;6.13;;;1.60;99.90;;;;;;6117971;29;20027;-83
2021/03/21 07:22:15;;;;;;;7.18;5.93;;;1.80;92.60;;;;;;6104707;29;20036;-83
2021/03/21 07:25:55;;;;;;;6.13;5.00;;;2.00;98.00;;;;;;6120521;29;20031;-84
2021/03/21 07:29:09;;;;;;;7.53;5.80;;;1.80;87.80;;;;;;6108454;29;20059;-84
2021/03/21 07:32:33;;;;;;;6.95;5.05;;;1.90;89.40;;;;;;6116033;29;20067;-84
2021/03/21 07:35:51;;;;;;;;;;;2.00;86.20;;;;;;6124646;29;20031;-83
2021/03/21 07:39:25;;;;;;;6.05;5.15;;;2.00;98.70;;;;;;6100972;29;19911;-85
2021/03/21 07:42:32;;;;;;;7.57;5.57;;;2.10;99.40;;;;;;6123348;29;20441;-82
2021/03/21 07:45:36;;;;;;;12.95;7.93;;;2.30;97.60;;;;;;6118142;29;20024;-84
2021/03/21 07:48:39;;;;;;;9.18;6.88;;;2.20;97.50;;;;;;6123474;29;20036;-84
2021/03/21 07:51:52;;;;;;;17.45;14.18;;;2.30;98.60;;;;;;6105678;29;20086;-85
2021/03/21 07:55:01;;;;;;;7.30;5.78;;;2.40;98.40;;;;;;6128484;29;20043;-82
2021/03/21 07:58:22;;;;;;;7.30;5.07;;;2.40;98.70;;;;;;6094817;29;20801;-85
2021/03/21 08:01:22;;;;;;;8.50;5.80;;;2.40;99.00;;;;;;6121500;29;20065;-81
2021/03/21 08:04:25;;;;;;;8.35;6.05;;;2.50;99.00;;;;;;6105944;29;20031;-80
2021/03/21 08:07:34;;;;;;;9.00;7.20;;;2.50;99.10;;;;;;6090092;29;20115;-82
2021/03/21 08:10:38;;;;;;;10.57;8.07;;;2.50;90.90;;;;;;6074228;29;20044;-82
2021/03/21 08:13:45;;;;;;;8.65;6.32;;;3.30;91.40;;;;;;6074122;29;20396;-81
2021/03/21 08:16:47;;;;;;;8.98;6.55;;;2.50;83.10;;;;;;6089507;29;20028;-83
2021/03/21 08:20:04;;;;;;;7.00;5.40;;;2.60;95.50;;;;;;6090189;29;20151;-83
2021/03/21 08:23:22;;;;;;;8.82;5.43;;;2.50;94.50;;;;;;6076463;29;20040;-81
2021/03/21 08:26:28;;;;;;;7.55;5.40;;;2.60;94.30;;;;;;6115875;29;20040;-81
2021/03/21 08:29:49;;;;;;;6.97;5.25;;;2.70;93.70;;;;;;6093519;29;20055;-83
2021/03/21 08:33:02;;;;;;;7.28;5.22;;;3.60;80.90;;;;;;6116907;29;20074;-84
2021/03/21 08:36:22;;;;;;;9.05;6.38;;;2.90;80.30;;;;;;6109557;29;20087;-82
2021/03/21 08:39:35;;;;;;;9.38;5.82;;;3.40;78.40;;;;;;6109459;29;20402;-82
2021/03/21 08:42:41;;;;;;;7.55;4.90;;;3.00;75.00;;;;;;6102299;29;20034;-83
2021/03/21 08:45:46;;;;;;;9.95;4.82;;;3.10;75.70;;;;;;6116791;29;20038;-80
2021/03/21 08:48:47;;;;;;;6.55;4.97;;;3.10;94.40;;;;;;6098887;29;20094;-79
2021/03/21 08:51:48;;;;;;;6.88;4.82;;;2.90;95.70;;;;;;6115452;29;20043;-81
2021/03/21 08:54:50;;;;;;;7.00;5.15;;;2.90;84.40;;;;;;6083533;29;20102;-81
2021/03/21 08:57:51;;;;;;;6.28;4.75;;;3.20;95.30;;;;;;6096480;29;20483;-81
2021/03/21 09:00:54;;;;;;;9.15;5.85;;;3.30;81.40;;;;;;6091467;29;20042;-82
2021/03/21 09:04:12;;;;;;;9.48;5.63;;;3.30;78.00;;;;;;6094247;29;20028;-85
2021/03/21 09:07:19;;;;;;;6.32;4.95;;;3.30;75.00;;;;;;6115458;29;20530;-80
2021/03/21 09:10:33;;;;;;;8.93;5.90;;;3.60;80.60;;;;;;6108465;29;20039;-80
2021/03/21 09:13:35;;;;;;;6.85;4.93;;;3.40;76.20;;;;;;6109518;29;20035;-81
2021/03/21 09:16:57;;;;;;;6.97;4.80;;;3.90;93.40;;;;;;6076542;29;20032;-83
2021/03/21 09:20:02;;;;;;;7.00;5.22;;;3.60;79.90;;;;;;6098728;29;20122;-81
2021/03/21 09:23:28;;;;;;;6.15;5.00;;;3.70;93.50;;;;;;6092895;29;20038;-81
2021/03/21 09:26:34;;;;;;;8.30;5.30;;;3.80;92.10;;;;;;6111519;29;20043;-83
2021/03/21 09:29:35;;;;;;;6.45;5.22;;;3.70;91.40;;;;;;6130329;29;20142;-81
2021/03/21 09:32:36;;;;;;;5.82;4.57;;;3.90;75.40;;;;;;6108515;29;20043;-84
2021/03/21 09:35:41;;;;;;;7.25;5.35;;;4.50;92.00;;;;;;6077501;29;20453;-80
2021/03/21 09:38:49;;;;;;;7.20;5.10;;;4.30;91.90;;;;;;6090594;29;20363;-81
2021/03/21 09:41:50;;;;;;;7.78;4.57;;;4.60;91.60;;;;;;6113328;29;20090;-82
2021/03/21 09:44:51;;;;;;;6.22;4.47;;;4.80;90.10;;;;;;6093253;29;20130;-82
2021/03/21 09:48:00;;;;;;;7.10;5.25;;;4.30;87.90;;;;;;6105836;29;20038;-82
2021/03/21 09:51:23;;;;;;;6.50;4.50;;;4.50;89.50;;;;;;6075280;29;20618;-80
2021/03/21 09:54:26;;;;;;;;;;;4.60;71.90;;;;;;6082416;29;20079;-82
2021/03/21 09:57:33;;;;;;;17.77;10.30;;;4.70;72.10;;;;;;6124568;29;19910;-81
2021/03/21 10:00:35;;;;;;;5.63;4.40;;;4.60;86.80;;;;;;6093211;29;20032;-81
2021/03/21 10:03:35;;;;;;;13.07;7.57;;;4.70;86.70;;;;;;6103424;29;20040;-77
2021/03/21 10:06:38;;;;;;;6.88;3.92;;;4.70;84.20;;;;;;6107554;29;20106;-79
2021/03/21 10:09:38;;;;;;;6.50;3.65;;;4.60;89.70;;;;;;6090783;29;20029;-81
2021/03/21 10:12:40;;;;;;;11.15;6.28;;;4.90;69.70;;;;;;6095454;29;20047;-77
2021/03/21 10:16:15;;;;;;;9.80;4.28;;;5.30;91.40;;;;;;6121854;29;20493;-76
2021/03/21 10:19:38;;;;;;;4.65;3.95;;;5.50;77.00;;;;;;6123422;29;20040;-81
2021/03/21 10:22:39;;;;;;;8.45;5.70;;;;;;;;;;6122548;29;20032;-81
2021/03/21 10:25:40;;;;;;;6.57;5.05;;;5.80;80.70;;;;;;6106505;29;20028;-80
2021/03/21 10:28:47;;;;;;;6.03;4.43;;;5.90;82.40;;;;;;6124113;29;20497;-80
2021/03/21 10:31:48;;;;;;;7.05;4.55;;;6.00;83.60;;;;;;6129849;29;20402;-80
2021/03/21 10:34:49;;;;;;;6.65;4.30;;;;;;;;;;6099472;29;20027;-80
2021/03/21 10:37:50;;;;;;;5.35;4.28;;;;;;;;;;6124060;29;20028;-80
2021/03/21 10:40:51;;;;;;;10.25;6.20;;;5.70;82.00;;;;;;6130952;29;20028;-80
2021/03/21 10:43:54;;;;;;;5.93;4.65;;;6.00;80.80;;;;;;6099532;29;20062;-80
2021/03/21 10:46:54;;;;;;;6.07;4.85;;;5.90;80.50;;;;;;6074625;29;20028;-80
2021/03/21 10:50:00;;;;;;;7.75;4.68;;;6.60;62.50;;;;;;6105746;29;20379;-80
2021/03/21 10:53:34;;;;;;;6.50;4.28;;;6.10;80.70;;;;;;6123377;29;20471;-81
2021/03/21 10:56:36;;;;;;;8.82;5.05;;;6.20;63.10;;;;;;6130075;29;20425;-80
2021/03/21 10:59:37;;;;;;;4.97;4.20;;;6.40;82.20;;;;;;6105806;29;20042;-80
2021/03/21 11:02:40;;;;;;;5.75;3.92;;;6.20;61.90;;;;;;6090487;29;20040;-80
2021/03/21 11:05:43;;;;;;;7.88;3.53;;;6.20;92.10;;;;;;6090311;29;20115;-80
2021/03/21 11:08:44;;;;;;;7.65;3.70;;;;;;;;;;6090524;29;20031;-80
2021/03/21 11:11:46;;;;;;;4.25;3.45;;;6.30;78.30;;;;;;6129764;29;20159;-79
2021/03/21 11:14:47;;;;;;;5.10;3.83;;;;;;;;;;6113410;29;20039;-80
2021/03/21 11:17:48;;;;;;;6.63;4.07;;;;;;;;;;6128793;29;20102;-79
2021/03/21 11:20:51;;;;;;;5.20;3.90;;;6.50;72.20;;;;;;6128272;29;20031;-80
2021/03/21 11:23:58;;;;;;;6.88;3.80;;;6.50;61.30;;;;;;6099871;29;20027;-80
2021/03/21 11:27:04;;;;;;;5.25;4.32;;;6.50;58.00;;;;;;6079769;29;20035;-80
2021/03/21 11:30:14;;;;;;;6.25;4.22;;;6.40;59.90;;;;;;6129397;29;20031;-80
2021/03/21 11:33:34;;;;;;;5.57;3.83;;;6.50;61.10;;;;;;6115437;29;20102;-79
2021/03/21 11:36:34;;;;;;;7.25;4.25;;;6.30;83.50;;;;;;6102661;29;20031;-79
2021/03/21 11:39:39;;;;;;;5.45;3.88;;;6.40;61.90;;;;;;6105832;29;20387;-79
2021/03/21 11:42:42;;;;;;;8.80;4.07;;;6.50;66.10;;;;;;6106560;29;20039;-80
2021/03/21 11:45:42;;;;;;;6.22;4.53;;;6.60;79.20;;;;;;6078621;29;20059;-80
2021/03/21 11:48:43;;;;;;;6.55;4.40;;;6.90;84.30;;;;;;6105046;29;20466;-79
2021/03/21 11:51:45;;;;;;;6.25;4.80;;;7.20;66.40;;;;;;6074190;29;20091;-79
2021/03/21 11:54:46;;;;;;;6.65;4.75;;;7.10;83.40;;;;;;6074419;29;20035;-80
2021/03/21 11:57:55;;;;;;;7.35;5.03;;;7.20;82.00;;;;;;6073782;29;20043;-80
2021/03/21 12:01:04;;;;;;;7.10;5.70;;;7.30;60.20;;;;;;6079937;29;20051;-80
2021/03/21 12:04:06;;;;;;;8.93;5.70;;;7.30;85.20;;;;;;6137286;29;20037;-80
2021/03/21 12:07:08;;;;;;;10.07;6.37;;;7.20;64.90;;;;;;6098671;29;20031;-79
2021/03/21 12:10:35;;;;;;;9.68;6.10;;;7.30;65.70;;;;;;6112350;29;20080;-79
2021/03/21 12:13:37;;;;;;;10.00;6.40;;;7.60;66.90;;;;;;6128271;29;20503;-80
2021/03/21 12:16:39;;;;;;;11.57;6.50;;;7.60;84.20;;;;;;6104087;29;20074;-80
2021/03/21 12:19:40;;;;;;;11.00;7.28;;;8.30;66.20;;;;;;6103098;29;20413;-80
2021/03/21 12:22:41;;;;;;;11.48;7.57;;;7.80;66.40;;;;;;6121441;29;20025;-80
2021/03/21 12:25:43;;;;;;;9.35;7.05;;;8.00;83.10;;;;;;6085002;29;20043;-80
2021/03/21 12:28:52;;;;;;;10.90;7.70;;;8.00;79.50;;;;;;6117966;29;20482;-79
2021/03/21 12:31:54;;;;;;;9.05;7.35;;;8.10;61.30;;;;;;6114129;29;20043;-79
2021/03/21 12:34:55;;;;;;;10.48;7.85;;;8.10;82.30;;;;;;6114344;29;20035;-80
2021/03/21 12:37:59;;;;;;;8.52;6.43;;;8.10;63.30;;;;;;6091786;29;20467;-80
2021/03/21 12:41:34;;;;;;;10.27;7.50;;;8.00;80.70;;;;;;6092105;29;20035;-80
2021/03/21 12:44:35;;;;;;;9.75;7.72;;;8.00;82.40;;;;;;6126713;29;20050;-80
2021/03/21 12:47:44;;;;;;;8.43;6.80;;;8.30;93.50;;;;;;6077908;29;20126;-80
2021/03/21 12:50:46;;;;;;;7.90;6.38;;;8.00;92.90;;;;;;6096122;29;20402;-79
2021/03/21 12:53:47;;;;;;;7.95;6.57;;;;;;;;;;6116574;29;20479;-80
2021/03/21 12:56:48;;;;;;;10.35;6.82;;;;;;;;;;6131666;29;20039;-79
2021/03/21 12:59:51;;;;;;;10.48;6.75;;;8.20;81.50;;;;;;6131549;29;20058;-79
2021/03/21 13:02:53;;;;;;;11.32;8.40;;;7.90;82.80;;;;;;6099607;29;20031;-82
2021/03/21 13:05:54;;;;;;;9.77;7.13;;;;;;;;;;6079526;29;20047;-81
2021/03/21 13:08:55;;;;;;;8.93;7.55;;;7.40;90.50;;;;;;6126535;29;20125;-80
2021/03/21 13:11:56;;;;;;;10.77;7.80;;;;;;;;;;6105440;29;20063;-80
2021/03/21 13:14:57;;;;;;;9.13;7.15;;;;;;;;;;6146848;29;20087;-80
2021/03/21 13:17:57;;;;;;;9.73;7.75;;;7.60;90.00;;;;;;6116183;29;20425;-80
2021/03/21 13:20:59;;;;;;;13.65;8.27;;;7.70;80.10;;;;;;6091162;29;20035;-80
2021/03/21 13:24:01;;;;;;;10.13;7.38;;;7.50;87.50;;;;;;6075187;29;20023;-83
2021/03/21 13:27:03;;;;;;;13.60;7.93;;;8.40;76.10;;;;;;6092134;29;20485;-79
2021/03/21 13:30:05;;;;;;;10.73;7.93;;;7.80;73.70;;;;;;6091844;29;20046;-80
2021/03/21 13:33:07;;;;;;;12.73;9.27;;;7.70;69.40;;;;;;6110889;29;20101;-80
2021/03/21 13:36:08;;;;;;;8.77;7.68;;;7.70;70.00;;;;;;6094642;29;20051;-78
2021/03/21 13:39:09;;;;;;;11.90;7.78;;;7.40;75.50;;;;;;6083068;29;20031;-79
2021/03/21 13:42:09;;;;;;;11.40;7.82;;;7.00;89.30;;;;;;6108284;29;20147;-79
2021/03/21 13:45:11;;;;;;;10.93;7.82;;;6.90;71.20;;;;;;6092429;29;20039;-78
2021/03/21 13:48:12;;;;;;;22.83;14.30;;;6.80;86.90;;;;;;6107676;29;20386;-79
2021/03/21 13:51:13;;;;;;;30.20;18.55;;;6.90;69.20;;;;;;6092116;29;20043;-78
2021/03/21 13:54:14;;;;;;;10.60;8.13;;;;;;;;;;6109553;29;20118;-80
2021/03/21 13:57:15;;;;;;;9.05;7.13;;;7.10;67.90;;;;;;6124125;29;20040;-80
2021/03/21 14:00:16;;;;;;;12.07;7.25;;;7.20;71.00;;;;;;6107595;29;20115;-79
2021/03/21 14:03:17;;;;;;;11.18;8.38;;;6.90;89.40;;;;;;6127259;29;20407;-79
2021/03/21 14:06:17;;;;;;;14.82;9.13;;;7.10;72.00;;;;;;6082969;29;20083;-79
2021/03/21 14:09:18;;;;;;;11.75;7.93;;;7.10;73.00;;;;;;6136821;29;20483;-79
2021/03/21 14:12:19;;;;;;;9.35;7.75;;;6.90;77.10;;;;;;6127125;29;20050;-79
2021/03/21 14:15:20;;;;;;;10.38;8.05;;;7.10;76.40;;;;;;6129241;29;20038;-82
2021/03/21 14:18:22;;;;;;;11.43;8.60;;;6.90;95.00;;;;;;6091146;29;20027;-78
2021/03/21 14:21:23;;;;;;;17.65;11.55;;;6.60;94.50;;;;;;6117949;29;20031;-79
2021/03/21 14:24:24;;;;;;;12.82;8.65;;;6.70;82.70;;;;;;6116135;29;20382;-79
2021/03/21 14:27:24;;;;;;;12.90;10.65;;;6.60;96.90;;;;;;6124052;29;20130;-79
2021/03/21 14:30:26;;;;;;;14.85;12.13;;;6.20;87.80;;;;;;6115894;29;20042;-78
2021/03/21 14:33:27;;;;;;;14.02;9.80;;;6.10;88.80;;;;;;6104457;29;20090;-79
2021/03/21 14:36:27;;;;;;;14.13;12.63;;;5.90;98.40;;;;;;6146390;29;20031;-79
2021/03/21 14:39:28;;;;;;;11.75;10.02;;;5.80;98.40;;;;;;6113328;29;20035;-79
2021/03/21 14:42:28;;;;;;;11.77;9.90;;;5.90;98.30;;;;;;6111216;29;20398;-79
2021/03/21 14:45:29;;;;;;;11.55;8.32;;;5.90;90.30;;;;;;6107328;29;20027;-79
2021/03/21 14:48:30;;;;;;;12.82;9.52;;;6.30;91.00;;;;;;6106915;29;20030;-79
2021/03/21 14:51:30;;;;;;;14.23;10.20;;;5.60;99.70;;;;;;6123492;29;20048;-79
2021/03/21 14:54:31;;;;;;;13.35;11.00;;;5.00;99.90;;;;;;6109408;29;20069;-79
2021/03/21 14:57:32;;;;;;;15.88;9.80;;;4.80;99.90;;;;;;6105033;29;20023;-79
2021/03/21 15:00:34;;;;;;;16.13;12.13;;;5.40;93.90;;;;;;6122281;29;20027;-79
2021/03/21 15:03:35;;;;;;;14.23;10.85;;;4.70;99.90;;;;;;6120653;29;20112;-78
2021/03/21 15:06:36;;;;;;;15.45;10.75;;;4.70;99.90;;;;;;6111175;29;20031;-78
2021/03/21 15:09:37;;;;;;;10.93;8.95;;;;;;;;;;6092960;29;20064;-79
2021/03/21 15:12:38;;;;;;;12.13;9.65;;;4.30;98.40;;;;;;6092643;29;20043;-79
2021/03/21 15:15:43;;;;;;;12.40;8.88;;;4.80;99.90;;;;;;6106072;29;20028;-81
2021/03/21 15:18:46;;;;;;;14.48;8.85;;;;;;;;;;6090253;29;20731;-80
2021/03/21 15:21:47;;;;;;;11.77;8.52;;;;;;;;;;6090736;29;20058;-79
2021/03/21 15:24:48;;;;;;;12.38;9.00;;;;;;;;;;6121576;29;20039;-79
2021/03/21 15:27:50;;;;;;;11.18;8.77;;;5.00;91.50;;;;;;6087581;29;20606;-79
2021/03/21 15:30:51;;;;;;;;;;;5.10;98.50;;;;;;6113980;29;20066;-79
2021/03/21 15:33:52;;;;;;;11.63;8.50;;;;;;;;;;6109386;29;19950;-80
2021/03/21 15:36:54;;;;;;;11.73;8.75;;;4.90;99.90;;;;;;6108439;29;20497;-79
2021/03/21 15:39:55;;;;;;;12.93;8.73;;;5.10;99.90;;;;;;6116688;29;20035;-79
2021/03/21 15:42:56;;;;;;;13.88;9.27;;;4.70;92.40;;;;;;6099418;29;20453;-79
2021/03/21 15:45:57;;;;;;;18.35;10.30;;;;;;;;;;6094920;29;20039;-80
2021/03/21 15:48:57;;;;;;;12.70;9.77;;;5.20;98.80;;;;;;6093969;29;20110;-79
2021/03/21 15:51:58;;;;;;;13.90;10.02;;;4.90;99.90;;;;;;6098900;29;20050;-79
2021/03/21 15:54:59;;;;;;;11.75;8.88;;;;;;;;;;6132588;29;20035;-79
2021/03/21 15:58:00;;;;;;;10.27;8.45;;;4.70;98.00;;;;;;6115045;29;20381;-79
2021/03/21 16:01:03;;;;;;;12.05;8.45;;;;;;;;;;6079019;29;20046;-79
2021/03/21 16:04:04;;;;;;;13.55;9.05;;;5.00;99.90;;;;;;6129041;29;20383;-79
2021/03/21 16:07:05;;;;;;;11.02;8.85;;;4.60;99.90;;;;;;6078464;29;20024;-78
2021/03/21 16:10:06;;;;;;;13.32;8.38;;;;;;;;;;6123014;29;20036;-79
2021/03/21 16:13:09;;;;;;;11.23;8.65;;;4.40;95.40;;;;;;6131045;29;20047;-79
2021/03/21 16:16:10;;;;;;;14.05;8.73;;;5.00;99.40;;;;;;6108942;29;20042;-78
2021/03/21 16:19:13;;;;;;;14.25;8.77;;;4.40;96.30;;;;;;6109919;29;20043;-79
2021/03/21 16:22:13;;;;;;;;;;;4.70;92.00;;;;;;6110560;29;20031;-78
2021/03/21 16:25:14;;;;;;;11.65;8.55;;;4.50;99.80;;;;;;6125885;29;19933;-78
2021/03/21 16:28:16;;;;;;;12.65;8.63;;;4.60;90.80;;;;;;6125320;29;20065;-78
2021/03/21 16:31:16;;;;;;;13.57;9.02;;;4.70;99.20;;;;;;6118320;29;20070;-78
2021/03/21 16:34:18;;;;;;;10.80;7.93;;;4.50;99.10;;;;;;6092897;29;20020;-78
2021/03/21 16:37:20;;;;;;;13.85;9.25;;;4.70;99.90;;;;;;6136832;29;20462;-79
2021/03/21 16:40:21;;;;;;;11.52;8.00;;;4.70;93.20;;;;;;6133061;29;20031;-79
2021/03/21 16:43:24;;;;;;;16.20;9.03;;;4.50;92.30;;;;;;6119098;29;20487;-79